Abadia dos Dourados, Brazil
Current Conditions -  °F | °C
As of 6:00 PM on Saturday 25 Oct 2014 (Local Time) from SBUL Reporting Station
Scattered Clouds Scattered Clouds  
Wind Chill: 66°   Ceiling: Unl
Heat Index: 66°   Visibility: 6mi
Dew Point: 63°   Wind: 14mph
Humidity: 88%   Direction: 170°S
Pressure: 30"   Gusts: NA
Location:  18.49°S, 47.4°W
Report Text: SBUL 252000Z 17012KT 9999 FEW006 SCT007 19/17 Q1016
Loading
Personal Weather Stations






























Interactive Weather Map
Tropical Storm Tracking
New forecast layout! Learn more

10-Day Weather Forecast

Advertisements
Track Severe Weather on mobile